Flight Track Log - Related Links

Times and Time Zones

All times are in EDT time to prevent confusion due to time zone crossing. See the UAL993 flight status page for this flight to view local times or setup timezone preferences in your user account.


Time Position Orientation Groundspeed Altitude Reporting Facility
EDT Latitude Longitude Course Direction KTS MPH feet Rate Location/Type
Tue 11:32:05 AM 29.9764 -95.2983 98° East 176 203 1,000  Level Houston Center
Tue 11:32:35 AM 29.9722 -95.2747 102° East 156 180 1,900 2,000 Climbing Houston Center
Tue 11:33:14 AM 29.9642 -95.2364 104° East 189 217 3,300 1,967 Climbing Houston Center
Tue 11:33:36 AM 29.9619 -95.2086 95° East 229 264 3,900 2,419 Climbing Houston Center
Tue 11:34:00 AM 29.9210 -94.9095 97° East  Level FlightAware Approximate
Tue 11:34:16 AM 29.9558 -95.1564 98° East 253 291 5,800  Level Houston Center
Tue 11:34:37 AM 29.9514 -95.1181 98° East 297 342 7,100 3,194 Climbing Houston Center
Tue 11:35:00 AM 29.9084 -94.7668 95° East  Level FlightAware Approximate
Tue 11:35:18 AM 29.9456 -95.0650 97° East 284 327 9,100  Level Houston Center
Tue 11:35:38 AM 29.9403 -95.0231 98° East 299 344 10,500 2,000 Climbing Houston Center
Tue 11:36:00 AM 29.8951 -94.6242 98° East  Level FlightAware Approximate
Tue 11:36:21 AM 29.9347 -94.9647 96° East 308 354 11,200  Level Houston Center
Tue 11:37:00 AM 29.8784 -94.4821 98° East  Level FlightAware Approximate
Tue 11:37:23 AM 29.9214 -94.8403 97° East 382 440 13,200  Level Houston Center
Tue 11:38:25 AM 29.9072 -94.7128 97° East 399 459 15,400 2,468 Climbing Houston Center
Tue 11:39:27 AM 29.8894 -94.5517 97° East 420 483 18,300 2,565 Climbing Houston Center
Tue 11:40:29 AM 29.8731 -94.4156 98° East 428 493 20,700 1,984 Climbing Houston Center
Tue 11:41:31 AM 29.8606 -94.2750 96° East 438 504 22,400 1,500 Climbing Houston Center
Tue 11:42:33 AM 29.8567 -94.1272 92° East 453 521 23,800 1,355 Climbing Houston Center
Tue 11:43:35 AM 29.8611 -93.9772 88° East 473 544 25,200 1,258 Climbing Houston Center
Tue 11:44:37 AM 29.8764 -93.8275 83° East 475 547 26,400 1,296 Climbing Houston Center
Tue 11:45:40 AM 29.8872 -93.6411 86° East 489 563 27,900 1,584 Climbing Houston Center
Tue 11:46:42 AM 29.8939 -93.4850 87° East 492 566 29,700 1,355 Climbing Houston Center
Tue 11:47:44 AM 29.9064 -93.3286 85° East 496 571 30,700 1,887 Climbing Houston Center
Tue 11:48:46 AM 29.9289 -93.1775 80° East 483 556 33,600 1,984 Climbing Houston Center
Tue 11:49:48 AM 29.9550 -93.0347 78° East 463 533 34,800 1,210 Climbing Houston Center
Tue 11:50:50 AM 29.9869 -92.8633 78° East 457 526 36,100 919 Climbing Houston Center
Tue 11:51:52 AM 30.0133 -92.7197 78° East 459 528 36,700 726 Climbing Houston Center
Tue 11:52:54 AM 30.0389 -92.5725 79° East 468 539 37,600 774 Climbing Houston Center
Tue 11:53:56 AM 30.0658 -92.4261 78° East 468 539 38,300 624 Climbing Houston Center
Tue 11:54:59 AM 30.0928 -92.2797 78° East 467 537 38,900 288 Climbing Houston Center
Tue 11:56:01 AM 30.1233 -92.1067 78° East 461 531 38,900 48 Level Houston Center
Tue 11:57:03 AM 30.1483 -91.9589 79° East 470 541 39,000 48 Climbing Houston Center
Tue 11:58:05 AM 30.1761 -91.8067 78° East 482 555 39,000 -48 Level Houston Center
Tue 11:59:07 AM 30.2028 -91.6467 79° East 486 559 38,900 -48 Descending Houston Center
Tue 12:00:09 PM 30.2292 -91.4936 79° East 486 559 38,900  Level Houston Center
Tue 12:01:11 PM 30.2569 -91.3394 78° East 490 564 38,900  Level Houston Center
Tue 12:02:13 PM 30.2833 -91.1825 79° East 495 570 38,900 48 Level Houston Center
Tue 12:03:16 PM 30.3158 -90.9925 79° East 502 578 39,000 48 Climbing Houston Center
Tue 12:04:18 PM 30.3419 -90.8322 79° East 506 582 39,000  Level Houston Center
Tue 12:05:20 PM 30.3692 -90.6708 79° East 511 588 39,000  Level Houston Center
Tue 12:06:22 PM 30.3958 -90.5081 79° East 516 594 39,000  Level Houston Center
Tue 12:07:24 PM 30.4217 -90.3447 80° East 516 594 39,000 -48 Level Houston Center
Tue 12:08:26 PM 30.4475 -90.1811 80° East 517 595 38,900 -48 Descending Houston Center
Tue 12:09:28 PM 30.4800 -89.9842 79° East 514 592 38,900  Level Houston Center
Tue 12:10:30 PM 30.5072 -89.8175 79° East 516 594 38,900  Level Houston Center
Tue 12:11:32 PM 30.5375 -89.6481 78° East 525 604 38,900  Level Houston Center
Tue 12:12:35 PM 30.6069 -89.4956 62° Northeast 534 615 38,900 48 Level Houston Center
Tue 12:13:37 PM 30.6844 -89.3500 58° Northeast 532 612 39,000  Climbing Houston Center
Tue 12:14:39 PM 30.7594 -89.2042 59° Northeast 528 608 38,900 -48 Descending Houston Center
Tue 12:15:41 PM 30.8344 -89.0603 59° Northeast 523 602 38,900 48 Level Houston Center
Tue 12:16:43 PM 30.9111 -88.9117 59° Northeast 527 606 39,000 48 Climbing Houston Center
Tue 12:17:45 PM 31.0028 -88.7375 58° Northeast 527 606 39,000 -48 Level Houston Center
Tue 12:18:47 PM 31.0761 -88.5958 59° Northeast 524 603 38,900  Descending Houston Center
Tue 12:19:49 PM 31.1528 -88.4503 58° Northeast 528 608 39,000 47 Climbing Houston Center
Tue 12:20:55 PM 31.2372 -88.2983 57° Northeast 513 590 39,000  Level Atlanta Center
Tue 12:21:55 PM 31.3131 -88.1511 59° Northeast 518 596 39,000  Level Atlanta Center
Tue 12:22:55 PM 31.3867 -88.0061 59° Northeast 518 596 39,000  Level Atlanta Center
Tue 12:23:55 PM 31.4581 -87.8608 60° Northeast 518 596 39,000  Level Atlanta Center
Tue 12:24:55 PM 31.5311 -87.7175 59° Northeast 518 596 39,000  Level Atlanta Center
Tue 12:25:55 PM 31.6108 -87.5600 59° Northeast 518 596 39,000  Level Atlanta Center
Tue 12:26:55 PM 31.6858 -87.4139 59° Northeast 518 596 39,000  Level Atlanta Center
Tue 12:27:55 PM 31.7458 -87.2794 62° Northeast 518 596 39,000  Level Atlanta Center
Tue 12:28:55 PM 31.8206 -87.1356 59° Northeast 512 589 39,000  Level Atlanta Center
Tue 12:29:55 PM 31.8908 -86.9936 60° Northeast 512 589 39,000  Level Atlanta Center
Tue 12:30:55 PM 31.9631 -86.8517 59° Northeast 507 583 39,000  Level Atlanta Center
Tue 12:31:55 PM 32.0458 -86.6950 58° Northeast 502 578 39,000  Level Atlanta Center
Tue 12:32:55 PM 32.1178 -86.5500 60° Northeast 502 578 39,000  Level Atlanta Center
Tue 12:33:55 PM 32.1894 -86.4047 60° Northeast 507 583 39,000  Level Atlanta Center
Tue 12:34:55 PM 32.2589 -86.2667 59° Northeast 499 574 39,000  Level Atlanta Center
Tue 12:35:55 PM 32.3425 -86.1383 52° Northeast 499 574 39,000  Level Atlanta Center
Tue 12:36:55 PM 32.4300 -86.0150 50° Northeast 500 575 39,000  Level Atlanta Center
Tue 12:37:55 PM 32.5028 -85.9008 53° Northeast 490 564 39,000  Level Atlanta Center
Tue 12:38:55 PM 32.6050 -85.7550 50° Northeast 502 578 39,000  Level Atlanta Center
Tue 12:39:55 PM 32.6903 -85.6233 52° Northeast 502 578 39,000  Level Atlanta Center
Tue 12:40:55 PM 32.7775 -85.4939 51° Northeast 507 583 39,000  Level Atlanta Center
Tue 12:41:55 PM 32.8625 -85.3644 52° Northeast 507 583 39,000  Level Atlanta Center
Tue 12:42:55 PM 32.9494 -85.2319 52° Northeast 507 583 39,000  Level Atlanta Center
Tue 12:43:55 PM 33.0361 -85.1067 50° Northeast 498 573 39,000  Level Atlanta Center
Tue 12:44:55 PM 33.1186 -84.9714 54° Northeast 493 567 39,000  Level Atlanta Center
Tue 12:45:55 PM 33.2031 -84.8408 52° Northeast 505 581 39,000  Level Atlanta Center
Tue 12:46:55 PM 33.2853 -84.7047 54° Northeast 505 581 39,000  Level Atlanta Center
Tue 12:47:55 PM 33.3672 -84.5711 54° Northeast 500 575 39,000  Level Atlanta Center
Tue 12:48:55 PM 33.4408 -84.4544 53° Northeast 495 570 39,000  Level Atlanta Center
Tue 12:49:55 PM 33.5225 -84.3178 54° Northeast 495 570 39,000  Level Atlanta Center
Tue 12:50:55 PM 33.6064 -84.1858 53° Northeast 501 577 39,000  Level Atlanta Center
Tue 12:51:55 PM 33.6858 -84.0514 55° Northeast 495 570 39,000  Level Atlanta Center
Tue 12:52:55 PM 33.7692 -83.9214 52° Northeast 495 570 39,000  Level Atlanta Center
Tue 12:53:55 PM 33.8503 -83.7886 54° Northeast 495 570 39,000  Level Atlanta Center
Tue 12:54:55 PM 33.9272 -83.6608 54° Northeast 490 564 39,000  Level Atlanta Center
Tue 12:55:55 PM 34.0081 -83.5275 54° Northeast 485 558 39,000  Level Atlanta Center
Tue 12:56:55 PM 34.0869 -83.3967 54° Northeast 480 552 39,000  Level Atlanta Center
Tue 12:57:55 PM 34.1653 -83.2656 54° Northeast 480 552 39,000  Level Atlanta Center
Tue 12:58:55 PM 34.2417 -83.1392 54° Northeast 475 547 39,000  Level Atlanta Center
Tue 12:59:55 PM 34.3222 -83.0025 54° Northeast 469 540 39,000  Level Atlanta Center
Tue 01:00:55 PM 34.3981 -82.8733 55° Northeast 469 540 39,000  Level Atlanta Center
Tue 01:01:55 PM 34.4719 -82.7461 55° Northeast 464 534 39,000  Level Atlanta Center
Tue 01:02:55 PM 34.5478 -82.6164 55° Northeast 464 534 39,000  Level Atlanta Center
Tue 01:03:55 PM 34.6175 -82.5042 53° Northeast 458 527 39,000  Level Atlanta Center
Tue 01:04:55 PM 34.6950 -82.3764 54° Northeast 458 527 39,000  Level Atlanta Center
Tue 01:05:55 PM 34.7683 -82.2433 56° Northeast 463 533 39,000  Level Atlanta Center
Tue 01:06:55 PM 34.8456 -82.1128 54° Northeast 463 533 39,000  Level Atlanta Center
Tue 01:07:55 PM 34.9289 -81.9739 54° Northeast 469 540 39,000  Level Atlanta Center
Tue 01:08:55 PM 34.9997 -81.8456 56° Northeast 463 533 39,000  Level Atlanta Center
Tue 01:09:55 PM 35.0744 -81.7167 55° Northeast 463 533 39,000  Level Atlanta Center
Tue 01:10:55 PM 35.1492 -81.5850 55° Northeast 458 527 39,000 -150 Level Atlanta Center
Tue 01:11:55 PM 35.2217 -81.4556 56° Northeast 458 527 38,700 -600 Descending Atlanta Center
Tue 01:12:55 PM 35.2961 -81.3261 55° Northeast 458 527 37,800 -900 Descending Atlanta Center
Tue 01:13:55 PM 35.3642 -81.1992 57° Northeast 453 521 36,900 -950 Descending Atlanta Center
Tue 01:14:55 PM 35.4381 -81.0667 56° Northeast 461 531 35,900 -950 Descending Atlanta Center
Tue 01:15:55 PM 35.5122 -80.9364 55° Northeast 461 531 35,000 -950 Descending Atlanta Center
Tue 01:16:55 PM 35.5881 -80.8033 55° Northeast 461 531 34,000 -950 Descending Atlanta Center
Tue 01:17:55 PM 35.6594 -80.6725 56° Northeast 461 531 33,100 -368 Descending Atlanta Center
Tue 01:19:38 PM 35.7819 -80.4517 56° Northeast 503 579 33,000 -37 Descending Washington Center
Tue 01:20:39 PM 35.8561 -80.3178 56° Northeast 470 541 33,000  Level Washington Center
Tue 01:21:37 PM 35.9281 -80.1861 56° Northeast 451 519 33,000  Level Washington Center
Tue 01:22:38 PM 35.9994 -80.0619 55° Northeast 451 519 33,000  Level Washington Center
Tue 01:23:38 PM 36.0753 -79.9300 55° Northeast 451 519 33,000  Level Washington Center
Tue 01:24:37 PM 36.1356 -79.8253 55° Northeast 456 525 33,000  Level Washington Center
Tue 01:25:37 PM 36.2156 -79.6778 56° Northeast 467 537 33,000  Level Washington Center
Tue 01:26:38 PM 36.2956 -79.5325 56° Northeast 467 537 33,000  Level Washington Center
Tue 01:27:38 PM 36.3731 -79.4022 54° Northeast 472 543 33,000  Level Washington Center
Tue 01:28:39 PM 36.4372 -79.2789 57° Northeast 472 543 33,000 -893 Level Washington Center
Tue 01:29:39 PM 36.5100 -79.1478 55° Northeast 472 543 31,200 -2,593 Descending Washington Center
Tue 01:30:37 PM 36.5914 -79.0092 54° Northeast 457 526 27,900 -3,000 Descending Washington Center
Tue 01:31:37 PM 36.6639 -78.8831 54° Northeast 457 526 25,300 -1,438 Descending Washington Center
Tue 01:32:38 PM 36.7319 -78.7511 57° Northeast 452 520 25,000 -148 Descending Washington Center
Tue 01:33:39 PM 36.8000 -78.6267 56° Northeast 446 513 25,000  Level Washington Center
Tue 01:34:39 PM 36.8611 -78.5175 55° Northeast 436 502 25,000 -712 Level Washington Center
Tue 01:35:37 PM 36.9286 -78.3953 55° Northeast 431 496 23,600 -1,513 Descending Washington Center
Tue 01:36:38 PM 36.9942 -78.2703 57° Northeast 426 490 22,000 -800 Descending Washington Center
Tue 01:37:37 PM 37.0608 -78.1711 50° Northeast 426 490 22,000  Level Washington Center
Tue 01:38:38 PM 37.1553 -78.0519 45° Northeast 406 467 22,000  Level Washington Center
Tue 01:39:39 PM 37.2386 -77.9528 43° Northeast 406 467 22,000  Level Washington Center
Tue 01:40:37 PM 37.3197 -77.8508 45° Northeast 406 467 22,000  Level Washington Center
Tue 01:41:38 PM 37.3989 -77.7511 45° Northeast 406 467 22,000  Level Washington Center
Tue 01:42:39 PM 37.4819 -77.6489 44° Northeast 406 467 22,000  Level Washington Center
Tue 01:43:39 PM 37.5631 -77.5436 46° Northeast 406 467 22,000 -356 Level Washington Center
Tue 01:44:37 PM 37.6439 -77.4408 45° Northeast 406 467 21,300 -864 Descending Washington Center
Tue 01:45:37 PM 37.7267 -77.3431 43° Northeast 401 461 20,300 -1,289 Descending Washington Center
Tue 01:46:38 PM 37.8133 -77.2608 37° Northeast 401 461 18,700 -1,785 Descending Washington Center
Tue 01:47:38 PM 37.9158 -77.2342 12° North 371 427 16,700 -1,983 Descending Washington Center
Tue 01:48:39 PM 38.0142 -77.2153 North 366 421 14,700 -1,934 Descending Washington Center
Tue 01:49:39 PM 38.1083 -77.1989 North 354 407 12,800 -1,780 Descending Washington Center
Tue 01:50:37 PM 38.1981 -77.1822 North 343 395 11,200 -1,424 Descending Washington Center
Tue 01:51:37 PM 38.2797 -77.1575 13° North 319 367 10,000 -793 Descending Washington Center
Tue 01:52:38 PM 38.3525 -77.1750 349° North 284 327 9,600 -689 Descending Washington Center
Tue 01:53:39 PM 38.4169 -77.1897 350° North 258 297 8,600 -1,041 Descending Washington Center
Tue 01:54:39 PM 38.4794 -77.2042 350° North 237 273 7,500 -1,220 Descending Washington Center
Tue 01:55:37 PM 38.5458 -77.2217 348° North 237 273 6,200 -807 Descending Washington Center
Tue 01:56:38 PM 38.6064 -77.2228 359° North 232 267 5,900 -99 Descending Washington Center
Tue 01:57:38 PM 38.6136 -77.1461 83° East 152 175 6,000 -99 Climbing Washington Center
Tue 01:58:39 PM 38.5514 -77.1261 166° South 115 132 5,700 -706 Descending Washington Center
Tue 02:00:45 PM 38.5167 -77.0167 112° Southeast 213 245 3,800 -839 Descending Potomac TRACON
Tue 02:01:45 PM 38.5833 -77.0167 360° North 188 216 3,100 -650 Descending Potomac TRACON
Tue 02:02:45 PM 38.6167 -77.0167 360° North 172 198 2,500 -300 Descending Potomac TRACON
Tue 02:03:45 PM 38.6667 -77.0167 360° North 177 204 2,500 -50 Level Potomac TRACON
Tue 02:04:45 PM 38.7167 -77.0167 360° North 177 204 2,400 -100 Descending Potomac TRACON

Login

Don't have an account? Register now (free) for customized features, flight alerts, and more!